Time;durP1;ratioP1;P1;durP2;ratioP2;P2;SDS_P1;SDS_P2;PMS_P1;PMS_P2;Temp;Humidity;BMP_temperature;BMP_pressure;BME280_temperature;BME280_humidity;BME280_pressure;Samples;Min_cycle;Max_cycle;Signal;HPM_P1;HPM_P2
2022/07/12 00:00:04;;;;;;;1.97;1.70;;;19.80;99.90;;;;;;5009544;28;20621;-64
2022/07/12 00:02:31;;;;;;;1.63;1.60;;;19.70;99.90;;;;;;5009430;28;21231;-66
2022/07/12 00:04:58;;;;;;;1.53;1.50;;;19.70;99.90;;;;;;5007621;28;21045;-67
2022/07/12 00:07:25;;;;;;;1.60;1.50;;;19.70;99.90;;;;;;5009587;28;20661;-67
2022/07/12 00:09:52;;;;;;;1.40;1.33;;;19.60;99.90;;;;;;5018258;28;20941;-67
2022/07/12 00:12:18;;;;;;;1.73;1.63;;;19.60;99.90;;;;;;4992736;28;20638;-67
2022/07/12 00:14:45;;;;;;;1.70;1.60;;;19.70;99.90;;;;;;5010038;28;20674;-68
2022/07/12 00:17:12;;;;;;;1.40;1.40;;;19.60;99.90;;;;;;5009239;28;20642;-65
2022/07/12 00:19:39;;;;;;;1.70;1.60;;;19.70;99.90;;;;;;5009217;28;20638;-67
2022/07/12 00:22:05;;;;;;;1.30;1.30;;;19.60;99.90;;;;;;5008276;28;21379;-68
2022/07/12 00:24:33;;;;;;;1.83;1.70;;;19.60;99.90;;;;;;5009518;28;21434;-68
2022/07/12 00:26:59;;;;;;;1.40;1.40;;;19.60;99.90;;;;;;5008408;28;20808;-66
2022/07/12 00:29:26;;;;;;;1.70;1.60;;;19.60;99.90;;;;;;5007942;28;21180;-67
2022/07/12 00:31:53;;;;;;;1.60;1.50;;;19.60;99.90;;;;;;5009881;28;20213;-68
2022/07/12 00:34:20;;;;;;;1.73;1.50;;;19.60;99.90;;;;;;5000937;28;20657;-68
2022/07/12 00:36:46;;;;;;;1.57;1.47;;;19.60;99.90;;;;;;5002529;28;20748;-67
2022/07/12 00:39:13;;;;;;;1.57;1.47;;;19.60;99.90;;;;;;5009477;28;20730;-69
2022/07/12 00:41:40;;;;;;;1.30;1.30;;;19.70;99.90;;;;;;5009104;28;20644;-68
2022/07/12 00:44:06;;;;;;;1.60;1.57;;;19.70;99.90;;;;;;5012648;28;20663;-68
2022/07/12 00:46:33;;;;;;;1.70;1.60;;;19.70;99.90;;;;;;5013164;28;20639;-70
2022/07/12 00:49:00;;;;;;;2.33;1.80;;;19.60;99.90;;;;;;5012257;28;20771;-67
2022/07/12 00:51:28;;;;;;;1.93;1.93;;;19.60;99.90;;;;;;5011811;28;20637;-66
2022/07/12 00:53:57;;;;;;;2.17;1.47;;;19.50;99.90;;;;;;5013025;28;21280;-66
2022/07/12 00:56:24;;;;;;;2.30;1.90;;;19.50;99.90;;;;;;5012044;28;21200;-67
2022/07/12 00:58:50;;;;;;;2.13;2.03;;;19.40;99.90;;;;;;5013988;28;20220;-67
2022/07/12 01:01:17;;;;;;;1.80;1.70;;;19.40;99.90;;;;;;5011684;28;21269;-66
2022/07/12 01:03:45;;;;;;;1.50;1.50;;;19.30;99.90;;;;;;5012815;28;20684;-68
2022/07/12 01:06:11;;;;;;;2.50;1.70;;;19.30;99.90;;;;;;5010817;28;20642;-66
2022/07/12 01:08:40;;;;;;;1.90;1.80;;;19.20;99.90;;;;;;5012712;28;20645;-68
2022/07/12 01:11:07;;;;;;;1.77;1.67;;;19.20;99.90;;;;;;5012878;28;20633;-68
2022/07/12 01:13:35;;;;;;;1.83;1.73;;;19.20;99.90;;;;;;5012586;28;20223;-67
2022/07/12 01:16:02;;;;;;;2.47;2.37;;;19.20;99.90;;;;;;5009771;28;21177;-68
2022/07/12 01:18:31;;;;;;;2.60;2.40;;;19.20;99.90;;;;;;5013303;28;20632;-68
2022/07/12 01:21:01;;;;;;;1.87;1.77;;;19.10;99.90;;;;;;5012628;28;20733;-67
2022/07/12 01:23:27;;;;;;;2.10;2.00;;;19.10;99.90;;;;;;5012189;28;20638;-67
2022/07/12 01:25:54;;;;;;;2.30;2.20;;;19.10;99.90;;;;;;5012363;28;20645;-69
2022/07/12 01:28:28;;;;;;;2.10;1.90;;;19.00;99.90;;;;;;5009568;28;20669;-67
2022/07/12 01:30:55;;;;;;;1.83;1.73;;;19.00;99.90;;;;;;5027014;28;20633;-69
2022/07/12 01:33:22;;;;;;;1.80;1.80;;;19.00;99.90;;;;;;5012123;28;21247;-67
2022/07/12 01:35:49;;;;;;;1.73;1.70;;;18.90;99.90;;;;;;5012479;28;21004;-67
2022/07/12 01:38:16;;;;;;;1.80;1.70;;;19.00;99.90;;;;;;5011850;28;21028;-67
2022/07/12 01:40:43;;;;;;;2.00;1.90;;;18.90;99.90;;;;;;5012542;28;20621;-67
2022/07/12 01:43:11;;;;;;;2.20;2.10;;;18.90;99.90;;;;;;5011111;28;20644;-68
2022/07/12 01:45:37;;;;;;;2.00;1.90;;;18.90;99.90;;;;;;5011626;28;20643;-67
2022/07/12 01:48:04;;;;;;;1.90;1.80;;;18.90;99.90;;;;;;5012364;28;20748;-67
2022/07/12 01:50:31;;;;;;;2.13;2.03;;;18.80;99.90;;;;;;5007354;28;21180;-68
2022/07/12 01:52:59;;;;;;;2.17;2.00;;;18.70;99.90;;;;;;5009017;28;20617;-68
2022/07/12 01:55:25;;;;;;;2.30;2.20;;;18.80;99.90;;;;;;5010382;28;20748;-68
2022/07/12 01:57:53;;;;;;;2.20;2.10;;;18.70;99.90;;;;;;5012172;28;20728;-67
2022/07/12 02:00:20;;;;;;;2.30;2.10;;;18.80;99.90;;;;;;5011595;28;20625;-68
2022/07/12 02:02:47;;;;;;;1.97;1.87;;;18.80;99.90;;;;;;5011558;28;20642;-67
2022/07/12 02:05:14;;;;;;;2.00;1.90;;;18.70;99.90;;;;;;5012140;28;20652;-68
2022/07/12 02:07:41;;;;;;;2.20;2.10;;;18.60;99.90;;;;;;5011851;28;20669;-67
2022/07/12 02:10:09;;;;;;;2.20;2.00;;;18.70;99.90;;;;;;5011678;28;20609;-68
2022/07/12 02:12:39;;;;;;;2.20;2.10;;;18.70;99.90;;;;;;5010049;28;20648;-67
2022/07/12 02:15:07;;;;;;;2.17;1.97;;;18.80;99.90;;;;;;5012174;28;20633;-67
2022/07/12 02:17:34;;;;;;;2.10;2.00;;;18.70;99.90;;;;;;5012400;28;21240;-67
2022/07/12 02:20:03;;;;;;;2.10;2.00;;;18.80;99.90;;;;;;5010668;28;21169;-67
2022/07/12 02:22:30;;;;;;;1.97;1.87;;;18.80;99.90;;;;;;5012128;28;20994;-68
2022/07/12 02:24:57;;;;;;;2.33;1.97;;;18.70;99.90;;;;;;5010484;28;20994;-68
2022/07/12 02:27:24;;;;;;;1.90;1.70;;;18.60;99.90;;;;;;5010816;28;20669;-68
2022/07/12 02:29:50;;;;;;;2.13;2.03;;;18.60;99.90;;;;;;5011414;28;20624;-68
2022/07/12 02:32:17;;;;;;;2.33;2.23;;;18.60;99.90;;;;;;5011228;28;20205;-67
2022/07/12 02:34:44;;;;;;;2.20;2.00;;;18.50;99.90;;;;;;5011494;28;21163;-67
2022/07/12 02:37:11;;;;;;;2.23;2.13;;;18.50;99.90;;;;;;5010555;28;20646;-68
2022/07/12 02:39:37;;;;;;;1.90;1.80;;;18.50;99.90;;;;;;5011536;28;20984;-67
2022/07/12 02:42:04;;;;;;;3.20;2.30;;;18.40;99.90;;;;;;5010849;28;20203;-68
2022/07/12 02:44:31;;;;;;;2.00;1.90;;;18.50;99.90;;;;;;5011356;28;21248;-67
2022/07/12 02:47:00;;;;;;;2.47;2.38;;;18.40;99.90;;;;;;5010413;28;20435;-68
2022/07/12 02:49:27;;;;;;;1.88;1.77;;;18.40;99.90;;;;;;5011182;28;20233;-68
2022/07/12 02:51:53;;;;;;;2.17;2.07;;;18.40;99.90;;;;;;5007892;28;20198;-67
2022/07/12 02:54:20;;;;;;;1.80;1.70;;;18.40;99.90;;;;;;5009140;28;21291;-67
2022/07/12 02:56:47;;;;;;;1.60;1.50;;;18.40;99.90;;;;;;5010793;28;20614;-67
2022/07/12 02:59:14;;;;;;;2.20;2.10;;;18.40;99.90;;;;;;5010880;28;20637;-67
2022/07/12 03:01:40;;;;;;;1.90;1.80;;;18.30;99.90;;;;;;5009993;28;20614;-68
2022/07/12 03:04:07;;;;;;;1.93;1.77;;;18.30;99.90;;;;;;5008789;28;21054;-66
2022/07/12 03:06:34;;;;;;;1.40;1.40;;;18.30;99.90;;;;;;5010495;28;20625;-67
2022/07/12 03:09:01;;;;;;;1.75;1.65;;;18.20;99.90;;;;;;5009800;28;20756;-68
2022/07/12 03:11:27;;;;;;;3.30;2.20;;;18.20;99.90;;;;;;5010876;28;20214;-67
2022/07/12 03:13:54;;;;;;;2.00;1.90;;;18.20;99.90;;;;;;5009767;28;20661;-68
2022/07/12 03:16:21;;;;;;;2.00;1.90;;;18.20;99.90;;;;;;5011679;28;21087;-68
2022/07/12 03:18:48;;;;;;;2.10;2.00;;;18.20;99.90;;;;;;4997688;28;20634;-67
2022/07/12 03:21:15;;;;;;;2.07;1.87;;;18.20;99.90;;;;;;5002701;28;20641;-67
2022/07/12 03:23:44;;;;;;;2.43;2.23;;;18.20;99.90;;;;;;5009795;28;21307;-67
2022/07/12 03:26:12;;;;;;;2.20;2.10;;;18.20;99.90;;;;;;5009795;28;20737;-65
2022/07/12 03:28:39;;;;;;;1.90;1.80;;;18.30;99.90;;;;;;5009949;28;21122;-67
2022/07/12 03:31:05;;;;;;;2.00;1.90;;;18.30;99.90;;;;;;5009463;28;20747;-67
2022/07/12 03:33:32;;;;;;;2.10;2.00;;;18.20;99.90;;;;;;5010107;28;20645;-68
2022/07/12 03:36:00;;;;;;;2.10;2.00;;;18.20;99.90;;;;;;5008438;28;22215;-70
2022/07/12 03:38:27;;;;;;;2.05;1.95;;;18.20;99.90;;;;;;5004778;28;20638;-68
2022/07/12 03:40:53;;;;;;;2.30;2.20;;;18.20;99.90;;;;;;5003735;28;20226;-68
2022/07/12 03:43:20;;;;;;;2.60;2.40;;;18.10;99.90;;;;;;5009579;28;21213;-69
2022/07/12 03:45:47;;;;;;;2.60;2.47;;;18.10;99.90;;;;;;5010511;28;20936;-68
2022/07/12 03:48:14;;;;;;;2.20;2.10;;;18.10;99.90;;;;;;5009573;28;20724;-65
2022/07/12 03:50:41;;;;;;;2.13;2.03;;;18.10;99.90;;;;;;5009293;28;20634;-67
2022/07/12 03:53:07;;;;;;;2.73;2.53;;;18.10;99.90;;;;;;5009611;28;22182;-67
2022/07/12 03:55:34;;;;;;;2.47;2.27;;;18.10;99.90;;;;;;5009396;28;21055;-66
2022/07/12 03:58:01;;;;;;;4.07;2.20;;;18.30;99.90;;;;;;5006667;28;20633;-67
2022/07/12 04:00:28;;;;;;;2.50;2.30;;;18.30;99.90;;;;;;5009427;28;20625;-67
2022/07/12 04:02:55;;;;;;;2.10;2.00;;;18.40;99.90;;;;;;5008387;28;20203;-67
2022/07/12 04:05:26;;;;;;;2.20;2.10;;;18.50;99.90;;;;;;5009418;28;20657;-67
2022/07/12 04:07:54;;;;;;;2.00;1.90;;;18.60;99.90;;;;;;5007422;28;20739;-67
2022/07/12 04:10:21;;;;;;;2.17;2.07;;;18.60;99.90;;;;;;5009755;28;20625;-67
2022/07/12 04:12:48;;;;;;;2.35;2.15;;;18.70;99.90;;;;;;5008374;28;20629;-68
2022/07/12 04:15:16;;;;;;;2.23;2.07;;;18.80;99.90;;;;;;5008918;28;20770;-69
2022/07/12 04:17:43;;;;;;;2.07;1.97;;;19.00;99.90;;;;;;5007970;28;20613;-66
2022/07/12 04:20:10;;;;;;;1.93;1.80;;;19.20;99.90;;;;;;5006964;28;21208;-67
2022/07/12 04:22:37;;;;;;;2.10;2.00;;;19.30;99.90;;;;;;5009540;28;20626;-67
2022/07/12 04:25:04;;;;;;;2.17;2.08;;;19.50;99.90;;;;;;5007869;28;20748;-67
2022/07/12 04:27:31;;;;;;;2.00;1.90;;;19.80;99.90;;;;;;5009357;28;20625;-68
2022/07/12 04:29:58;;;;;;;2.60;2.40;;;20.00;99.90;;;;;;5001458;28;20654;-69
2022/07/12 04:32:29;;;;;;;2.40;2.30;;;20.30;99.90;;;;;;5009479;28;20888;-68
2022/07/12 04:34:56;;;;;;;2.20;2.10;;;20.50;99.90;;;;;;5008629;28;20661;-68
2022/07/12 04:37:22;;;;;;;2.20;2.10;;;20.70;99.90;;;;;;4989676;28;20619;-67
2022/07/12 04:39:49;;;;;;;2.00;1.90;;;20.90;99.90;;;;;;5003409;28;20643;-67
2022/07/12 04:42:16;;;;;;;2.60;2.40;;;21.10;99.90;;;;;;5008568;28;20643;-67
2022/07/12 04:44:43;;;;;;;3.53;2.30;;;21.30;99.90;;;;;;5009487;28;20672;-67
2022/07/12 04:47:10;;;;;;;2.53;2.33;;;21.40;99.90;;;;;;5008869;28;20736;-67
2022/07/12 04:49:38;;;;;;;2.10;2.00;;;21.40;99.90;;;;;;5009390;28;21038;-67
2022/07/12 04:52:05;;;;;;;2.23;2.13;;;21.40;99.90;;;;;;5008575;28;20773;-68
2022/07/12 04:54:32;;;;;;;2.50;2.30;;;21.70;99.90;;;;;;5007452;28;21278;-67
2022/07/12 04:56:59;;;;;;;2.63;1.97;;;22.00;99.90;;;;;;5008134;28;20628;-68
2022/07/12 04:59:25;;;;;;;1.97;1.80;;;22.20;99.90;;;;;;5006672;28;21224;-67
2022/07/12 05:01:52;;;;;;;2.13;2.00;;;22.30;99.90;;;;;;5008251;28;20660;-67
2022/07/12 05:04:19;;;;;;;2.35;2.25;;;22.50;99.90;;;;;;5009269;28;20651;-67
2022/07/12 05:06:46;;;;;;;2.20;2.10;;;22.50;99.70;;;;;;5008245;28;20229;-68
2022/07/12 05:09:13;;;;;;;2.57;2.37;;;22.60;99.60;;;;;;5008516;28;20670;-68
2022/07/12 05:11:39;;;;;;;2.63;2.50;;;22.90;99.10;;;;;;5009444;28;20621;-67
2022/07/12 05:14:06;;;;;;;2.38;2.28;;;23.20;98.70;;;;;;5002166;28;20761;-67
2022/07/12 05:16:33;;;;;;;2.30;2.20;;;23.40;98.20;;;;;;5008969;28;20218;-67
2022/07/12 05:19:01;;;;;;;2.10;1.90;;;23.70;97.80;;;;;;5009148;28;20652;-67
2022/07/12 05:21:28;;;;;;;2.50;2.40;;;23.80;97.30;;;;;;5001376;28;21191;-67
2022/07/12 05:23:54;;;;;;;2.00;1.90;;;24.00;96.90;;;;;;4985418;28;20765;-66
2022/07/12 05:26:21;;;;;;;2.20;1.77;;;24.10;96.70;;;;;;5007455;28;20233;-68
2022/07/12 05:28:49;;;;;;;6.23;2.13;;;24.20;96.30;;;;;;5008194;28;20223;-67
2022/07/12 05:31:16;;;;;;;8.03;2.27;;;24.00;96.50;;;;;;5012486;28;20660;-67
2022/07/12 05:33:43;;;;;;;1.97;1.97;;;23.90;96.70;;;;;;5010597;28;20759;-67
2022/07/12 05:36:10;;;;;;;2.30;2.20;;;24.00;96.30;;;;;;5028085;22;20696;-67
2022/07/12 05:38:36;;;;;;;2.00;1.90;;;24.10;96.50;;;;;;4994673;28;20724;-67
2022/07/12 05:41:03;;;;;;;2.20;2.10;;;24.40;95.90;;;;;;5012254;28;20636;-67
2022/07/12 05:43:30;;;;;;;2.23;2.13;;;24.20;95.70;;;;;;5012630;28;21211;-67
2022/07/12 05:45:57;;;;;;;3.10;2.90;;;24.40;95.70;;;;;;5011998;28;21025;-67
2022/07/12 05:48:24;;;;;;;2.60;2.20;;;24.60;94.90;;;;;;5012316;28;20669;-66
2022/07/12 05:50:50;;;;;;;2.80;2.37;;;24.70;94.90;;;;;;5012050;28;21208;-67
2022/07/12 05:53:23;;;;;;;2.30;2.20;;;24.90;94.40;;;;;;5011824;28;20740;-67
2022/07/12 05:55:54;;;;;;;2.20;2.10;;;24.90;94.30;;;;;;5012111;28;20302;-64
2022/07/12 05:58:21;;;;;;;4.33;1.90;;;25.20;94.10;;;;;;5012353;28;21255;-65
2022/07/12 06:00:48;;;;;;;5.90;2.63;;;25.20;94.00;;;;;;5012595;28;20999;-66
2022/07/12 06:03:16;;;;;;;5.30;2.70;;;25.50;93.60;;;;;;5013361;28;20636;-66
2022/07/12 06:05:43;;;;;;;2.85;2.65;;;25.80;93.10;;;;;;5009581;28;21061;-66
2022/07/12 06:08:10;;;;;;;2.67;2.57;;;25.90;92.90;;;;;;5008874;28;20277;-66
2022/07/12 06:10:37;;;;;;;2.40;2.30;;;26.20;92.60;;;;;;5011674;28;21244;-66
2022/07/12 06:13:04;;;;;;;2.47;2.28;;;26.60;91.90;;;;;;5012314;28;20728;-66
2022/07/12 06:15:34;;;;;;;2.30;1.93;;;26.90;91.60;;;;;;5012286;28;20225;-67
2022/07/12 06:18:02;;;;;;;2.03;2.03;;;27.60;90.90;;;;;;5012651;28;21184;-69
2022/07/12 06:20:29;;;;;;;2.75;2.55;;;28.10;89.90;;;;;;5010887;28;24441;-69
2022/07/12 06:22:57;;;;;;;2.70;2.60;;;28.70;86.70;;;;;;5012807;28;20206;-69
2022/07/12 06:25:24;;;;;;;2.70;2.60;;;29.10;85.10;;;;;;5011288;28;24532;-69
2022/07/12 06:28:09;;;;;;;3.10;2.50;;;29.60;83.80;;;;;;5010637;28;24821;-69
2022/07/12 06:30:36;;;;;;;5.82;2.60;;;30.40;81.30;;;;;;5010485;28;24424;-69
2022/07/12 06:33:03;;;;;;;2.55;2.40;;;31.00;78.40;;;;;;5011760;28;20202;-68
2022/07/12 06:35:30;;;;;;;2.53;2.40;;;31.10;76.40;;;;;;5010653;28;20237;-66
2022/07/12 06:37:56;;;;;;;2.20;2.10;;;31.50;75.20;;;;;;5012629;28;21087;-66
2022/07/12 06:40:23;;;;;;;1.93;1.83;;;31.80;73.40;;;;;;5012409;28;20712;-66
2022/07/12 06:42:50;;;;;;;2.10;2.00;;;32.60;71.30;;;;;;5011415;28;20728;-66
2022/07/12 06:45:18;;;;;;;2.10;2.00;;;32.80;69.10;;;;;;5011579;28;21038;-67
2022/07/12 06:47:45;;;;;;;1.80;1.80;;;32.70;68.00;;;;;;5010509;28;21002;-67
2022/07/12 06:50:12;;;;;;;2.50;2.10;;;33.40;66.60;;;;;;5010027;28;20676;-65
2022/07/12 06:52:39;;;;;;;1.88;1.77;;;34.20;64.60;;;;;;5012362;28;20616;-63
2022/07/12 06:55:07;;;;;;;1.90;1.87;;;34.90;62.80;;;;;;5010887;28;20194;-64
2022/07/12 06:57:34;;;;;;;1.90;1.77;;;35.80;60.50;;;;;;5019750;28;20629;-62
2022/07/12 07:00:04;;;;;;;4.10;1.80;;;36.20;59.10;;;;;;5006669;28;20192;-64
2022/07/12 07:02:31;;;;;;;2.03;1.93;;;37.10;57.50;;;;;;5011243;28;20985;-64
2022/07/12 07:04:58;;;;;;;2.30;2.17;;;38.20;55.30;;;;;;5011106;28;20621;-62
2022/07/12 07:07:25;;;;;;;2.20;2.10;;;39.00;53.70;;;;;;5002084;28;20676;-63
2022/07/12 07:09:52;;;;;;;1.97;1.80;;;38.90;52.20;;;;;;5008231;28;20249;-61
2022/07/12 07:12:19;;;;;;;2.30;2.20;;;39.40;51.60;;;;;;5002509;28;20721;-64
2022/07/12 07:14:46;;;;;;;1.80;1.80;;;39.50;50.90;;;;;;4998001;28;20199;-64
2022/07/12 07:17:17;;;;;;;1.65;1.65;;;38.80;51.00;;;;;;5010855;28;21121;-64
2022/07/12 07:19:44;;;;;;;3.13;2.40;;;39.30;50.00;;;;;;5004819;28;20692;-65
2022/07/12 07:22:14;;;;;;;2.23;2.13;;;39.90;49.30;;;;;;5003954;28;20664;-64
2022/07/12 07:24:41;;;;;;;2.27;2.17;;;40.00;49.10;;;;;;5002436;28;20650;-65
2022/07/12 07:27:08;;;;;;;1.80;1.80;;;40.80;48.10;;;;;;5004722;28;21237;-64
2022/07/12 07:32:23;;;;;;;1.90;1.80;;;42.20;45.90;;;;;;4983454;28;20680;-64
2022/07/12 07:34:50;;;;;;;3.50;2.13;;;42.60;45.30;;;;;;5000824;28;20649;-62
2022/07/12 07:37:16;;;;;;;2.40;2.20;;;42.50;44.90;;;;;;5000045;28;20652;-64
2022/07/12 07:39:43;;;;;;;2.77;1.97;;;42.50;44.50;;;;;;5003005;28;20994;-64
2022/07/12 07:42:10;;;;;;;2.58;2.28;;;43.60;43.80;;;;;;5005434;28;20645;-65
2022/07/12 07:44:37;;;;;;;2.27;2.20;;;44.40;42.70;;;;;;5010170;28;20209;-63
2022/07/12 07:47:24;;;;;;;2.17;2.03;;;44.70;42.10;;;;;;5009764;28;20643;-64
2022/07/12 07:49:54;;;;;;;2.00;1.90;;;44.60;41.90;;;;;;5010080;28;20669;-64
2022/07/12 07:52:21;;;;;;;1.70;1.70;;;43.80;41.50;;;;;;5008251;28;20640;-65
2022/07/12 07:54:47;;;;;;;1.65;1.65;;;43.90;41.70;;;;;;5009465;28;20637;-64
2022/07/12 07:57:14;;;;;;;1.90;1.80;;;44.50;41.30;;;;;;5010870;28;20207;-64
2022/07/12 07:59:41;;;;;;;1.70;1.67;;;44.80;41.20;;;;;;5008998;28;20669;-66
2022/07/12 08:02:11;;;;;;;1.30;1.30;;;45.50;40.50;;;;;;5010403;28;21255;-64
2022/07/12 08:04:38;;;;;;;1.50;1.50;;;44.90;40.10;;;;;;5010053;28;20676;-64
2022/07/12 08:07:05;;;;;;;1.80;1.80;;;45.20;39.60;;;;;;5010909;28;21065;-65
2022/07/12 08:09:32;;;;;;;1.53;1.53;;;45.70;39.60;;;;;;5007966;28;20661;-65
2022/07/12 08:11:59;;;;;;;1.30;1.30;;;46.40;39.20;;;;;;5009840;28;20640;-63
2022/07/12 08:14:25;;;;;;;1.37;1.37;;;47.20;38.50;;;;;;5009739;28;20681;-67
2022/07/12 08:16:52;;;;;;;1.10;1.10;;;46.60;37.70;;;;;;5006686;28;20668;-62
2022/07/12 08:19:19;;;;;;;1.20;1.10;;;46.40;37.90;;;;;;5005298;28;20633;-63
2022/07/12 08:21:46;;;;;;;1.17;1.17;;;46.20;37.10;;;;;;5004615;28;20643;-65
2022/07/12 08:24:13;;;;;;;1.60;1.50;;;46.20;37.40;;;;;;5009061;28;20209;-63
2022/07/12 08:26:40;;;;;;;1.30;1.30;;;47.00;37.50;;;;;;5009822;28;20271;-65
2022/07/12 08:29:07;;;;;;;1.50;1.50;;;46.30;37.90;;;;;;5008712;28;21386;-64
2022/07/12 08:31:34;;;;;;;1.40;1.40;;;46.90;37.70;;;;;;5002589;28;20630;-63
2022/07/12 08:34:01;;;;;;;1.37;1.33;;;47.90;37.20;;;;;;5004319;28;21220;-64
2022/07/12 08:36:28;;;;;;;1.20;1.20;;;48.90;36.50;;;;;;5008975;28;20803;-64
2022/07/12 08:38:59;;;;;;;1.80;1.70;;;47.60;36.50;;;;;;5009274;28;20641;-64
2022/07/12 08:41:26;;;;;;;1.30;1.30;;;46.50;37.00;;;;;;5006457;28;20991;-64
2022/07/12 08:43:53;;;;;;;1.40;1.30;;;46.50;37.00;;;;;;5007412;28;20749;-63
2022/07/12 08:46:20;;;;;;;1.33;1.33;;;47.00;36.70;;;;;;5008938;28;21014;-64
2022/07/12 08:48:47;;;;;;;1.70;1.60;;;47.10;36.20;;;;;;5007772;28;21130;-64
2022/07/12 08:51:19;;;;;;;1.30;1.30;;;47.60;36.20;;;;;;5009642;28;20635;-63
2022/07/12 08:53:49;;;;;;;1.98;1.30;;;48.60;35.70;;;;;;5007581;28;20193;-64
2022/07/12 08:56:33;;;;;;;1.20;1.20;;;48.90;35.10;;;;;;5009692;28;20261;-64
2022/07/12 08:59:17;;;;;;;1.40;1.40;;;46.70;35.90;;;;;;5003637;28;20634;-63
2022/07/12 09:01:52;;;;;;;1.40;1.40;;;46.70;36.10;;;;;;4998241;28;20598;-63
2022/07/12 09:04:21;;;;;;;1.53;1.43;;;46.60;36.10;;;;;;4998645;28;20648;-63
2022/07/12 09:06:49;;;;;;;1.60;1.60;;;47.70;35.70;;;;;;5001605;28;20689;-65
2022/07/12 09:09:30;;;;;;;1.20;1.20;;;48.50;34.90;;;;;;5006480;28;20665;-66
2022/07/12 09:11:57;;;;;;;1.27;1.20;;;48.70;34.90;;;;;;5010415;28;20639;-66
2022/07/12 09:14:24;;;;;;;1.20;1.20;;;47.20;35.60;;;;;;5014399;28;20618;-65
2022/07/12 09:17:12;;;;;;;1.10;1.10;;;47.40;35.20;;;;;;4915024;28;21284;-65
2022/07/12 09:19:39;;;;;;;1.57;1.57;;;48.70;34.60;;;;;;5025037;28;20598;-64
2022/07/12 09:22:19;;;;;;;1.37;1.37;;;49.60;34.10;;;;;;5026345;28;21199;-65
2022/07/12 09:24:45;;;;;;;1.30;1.30;;;51.00;33.70;;;;;;5029884;28;20630;-65
2022/07/12 09:27:13;;;;;;;1.10;1.10;;;50.30;33.50;;;;;;5031736;28;20239;-65
2022/07/12 09:29:47;;;;;;;1.30;1.20;;;50.00;33.70;;;;;;5032270;28;20240;-65
2022/07/12 09:37:46;;;;;;;1.10;1.10;;;48.90;34.00;;;;;;5032886;28;20660;-65
2022/07/12 09:40:13;;;;;;;1.30;1.30;;;50.20;33.50;;;;;;5030152;28;20707;-65
2022/07/12 09:42:41;;;;;;;1.23;1.23;;;50.20;33.10;;;;;;5029187;28;20627;-65
2022/07/12 09:45:10;;;;;;;1.27;1.27;;;50.80;33.00;;;;;;5031930;28;20233;-64
2022/07/12 09:47:37;;;;;;;1.67;1.30;;;51.20;32.90;;;;;;5030793;28;20632;-66
2022/07/12 09:50:07;;;;;;;1.27;1.27;;;51.20;32.60;;;;;;5027354;28;20660;-65
2022/07/12 09:52:37;;;;;;;1.37;1.37;;;52.20;33.00;;;;;;5025422;28;20211;-65
2022/07/12 09:55:07;;;;;;;1.30;1.30;;;52.90;32.00;;;;;;5026377;28;21232;-65
2022/07/12 09:57:39;;;;;;;1.30;1.30;;;53.50;31.80;;;;;;5022831;28;20620;-64
2022/07/12 10:00:09;;;;;;;2.63;1.48;;;53.60;31.40;;;;;;5030119;28;20292;-67
2022/07/12 10:02:37;;;;;;;1.50;1.50;;;53.40;31.60;;;;;;5032099;28;20296;-67
2022/07/12 10:05:06;;;;;;;1.40;1.40;;;52.70;32.10;;;;;;5025609;28;20271;-65
2022/07/12 10:07:34;;;;;;;1.40;1.40;;;52.10;32.10;;;;;;5026552;28;20634;-64
2022/07/12 10:10:01;;;;;;;1.30;1.30;;;51.10;32.30;;;;;;5021094;28;20682;-67
2022/07/12 10:12:28;;;;;;;1.00;1.00;;;50.40;32.40;;;;;;5028094;28;20635;-66
2022/07/12 10:15:07;;;;;;;1.40;1.40;;;48.30;32.90;;;;;;5021394;28;20203;-65
2022/07/12 10:17:34;;;;;;;1.10;1.00;;;47.00;33.70;;;;;;5028095;28;20620;-65
2022/07/12 10:20:19;;;;;;;1.13;1.13;;;47.00;34.10;;;;;;5031637;28;20628;-69
2022/07/12 10:22:47;;;;;;;1.13;1.10;;;46.10;34.50;;;;;;5031851;28;20613;-65
2022/07/12 10:25:43;;;;;;;2.83;1.23;;;44.10;35.40;;;;;;5032314;28;20659;-65
2022/07/12 10:29:04;;;;;;;2.07;1.00;;;41.60;37.10;;;39.04;22.33;101447.19;4954027;27;21724;-65
2022/07/12 10:31:40;;;;;;;3.50;1.50;;;38.80;39.10;;;37.80;22.78;101449.78;4988481;28;21067;-65
2022/07/12 10:34:24;;;;;;;1.20;1.20;;;37.00;40.60;;;36.88;23.97;101436.94;4987455;28;20630;-66
2022/07/12 10:36:54;;;;;;;1.30;1.20;;;35.90;41.50;;;35.93;25.62;101439.72;4986510;28;20675;-69
2022/07/12 10:40:10;;;;;;;1.30;1.20;;;35.00;42.80;;;34.77;26.88;101429.41;4987899;28;20749;-66
2022/07/12 10:42:37;;;;;;;3.80;1.20;;;33.90;44.10;;;33.96;27.50;101432.69;4988032;28;20681;-65
2022/07/12 10:45:15;;;;;;;1.20;1.20;;;33.00;44.90;;;33.25;29.00;101434.03;4988581;28;20626;-66
2022/07/12 10:47:59;;;;;;;0.80;0.80;;;32.10;46.00;;;32.47;30.21;101443.66;4974789;28;20667;-66
2022/07/12 10:50:57;;;;;;;1.00;1.00;;;31.50;47.00;;;31.92;31.09;101443.03;4976243;28;20619;-64
2022/07/12 10:53:34;;;;;;;1.10;1.10;;;31.00;48.00;;;31.49;31.94;101439.72;4988106;28;20706;-65
2022/07/12 10:56:04;;;;;;;2.30;1.40;;;30.50;48.90;;;31.45;32.18;101431.28;4984623;28;20647;-66
2022/07/12 10:58:34;;;;;;;1.20;1.20;;;30.40;49.10;;;31.05;33.35;101432.78;4986570;28;20631;-66
2022/07/12 11:01:05;;;;;;;1.60;1.50;;;30.10;49.80;;;30.70;33.16;101434.38;4986557;28;20609;-65
2022/07/12 11:03:51;;;;;;;1.43;1.33;;;29.90;49.80;;;30.70;34.01;101432.38;4986977;28;20619;-66
2022/07/12 11:06:24;;;;;;;1.40;1.20;;;29.50;50.60;;;30.25;34.18;101433.72;4982061;28;20658;-66
2022/07/12 11:08:55;;;;;;;1.20;1.20;;;29.30;50.90;;;29.90;34.86;101436.03;4960149;28;21258;-65
2022/07/12 11:11:34;;;;;;;1.50;1.40;;;29.00;51.40;;;29.58;35.20;101448.63;4988200;28;20630;-66
2022/07/12 11:14:02;;;;;;;1.10;1.10;;;28.70;51.90;;;29.53;35.73;101442.25;4986796;28;20616;-65
2022/07/12 11:16:30;;;;;;;1.37;1.37;;;28.60;52.50;;;29.52;36.03;101432.50;4987644;28;21092;-66
2022/07/12 11:18:58;;;;;;;2.23;1.30;;;28.50;52.60;;;29.53;35.40;101439.56;4985524;28;20627;-64
2022/07/12 11:21:25;;;;;;;1.57;1.10;;;28.60;52.60;;;29.49;35.78;101438.34;4977694;28;20631;-67
2022/07/12 11:23:52;;;;;;;1.23;1.13;;;28.50;52.40;;;29.30;36.31;101433.88;4980619;28;20629;-66
2022/07/12 11:26:19;;;;;;;1.70;1.60;;;28.40;52.80;;;29.02;36.22;101443.03;4976253;28;21013;-66
2022/07/12 11:28:50;;;;;;;1.10;1.10;;;28.10;53.00;;;28.95;36.94;101444.09;4987211;28;20619;-68
2022/07/12 11:31:18;;;;;;;1.30;1.30;;;28.00;53.90;;;28.65;37.08;101443.72;4979847;28;20623;-68
2022/07/12 11:33:48;;;;;;;4.30;1.50;;;27.80;54.20;;;28.61;37.76;101434.44;4980388;28;20634;-68
2022/07/12 11:36:16;;;;;;;1.67;1.57;;;27.70;54.70;;;28.59;37.65;101430.31;5005458;23;20712;-66
2022/07/12 11:38:45;;;;;;;1.30;1.30;;;27.60;54.70;;;28.42;38.14;101424.53;4998723;28;20635;-65
2022/07/12 11:41:14;;;;;;;1.80;1.77;;;27.50;55.00;;;28.43;38.16;101421.63;4880846;28;20725;-65
2022/07/12 11:43:42;;;;;;;2.00;1.90;;;27.50;54.90;;;28.47;37.86;101411.31;4996560;28;20681;-64
2022/07/12 11:46:10;;;;;;;1.90;1.80;;;27.50;55.00;;;28.39;38.21;101422.25;5011820;28;20642;-66
2022/07/12 11:48:38;;;;;;;1.60;1.60;;;27.50;56.10;;;28.19;38.20;101419.59;4997086;28;21250;-64
2022/07/12 11:51:09;;;;;;;1.80;1.40;;;27.30;54.80;;;28.02;38.28;101421.03;4980909;28;20618;-65
2022/07/12 11:53:38;;;;;;;2.33;1.80;;;27.10;55.30;;;27.85;38.57;101418.91;4993346;28;20721;-65
2022/07/12 11:56:07;;;;;;;2.40;1.50;;;27.00;55.20;;;27.77;38.69;101417.22;5005599;28;20781;-64
2022/07/12 11:58:38;;;;;;;1.20;1.20;;;26.80;56.10;;;27.76;38.50;101412.91;4991955;28;20655;-65
2022/07/12 12:01:11;;;;;;;1.20;1.20;;;26.80;55.60;;;27.84;38.36;101409.19;4993452;28;20973;-67
2022/07/12 12:03:46;;;;;;;1.57;1.47;;;26.90;55.40;;;27.91;38.77;101415.38;4992372;28;20630;-65
2022/07/12 12:06:14;;;;;;;1.37;1.33;;;27.00;55.40;;;27.93;38.20;101398.06;4992115;28;21185;-66
2022/07/12 12:08:42;;;;;;;1.50;1.50;;;27.00;55.10;;;27.89;37.66;101393.31;4983639;28;20670;-64
2022/07/12 12:11:09;;;;;;;1.60;1.40;;;27.00;54.80;;;27.91;38.68;101393.94;4988221;28;20637;-64
2022/07/12 12:13:36;;;;;;;1.23;1.23;;;27.00;55.60;;;27.94;38.34;101396.22;4992446;28;20623;-63
2022/07/12 12:16:05;;;;;;;1.37;1.27;;;27.00;55.40;;;28.00;38.06;101393.56;4991787;28;20669;-64
2022/07/12 12:18:43;;;;;;;1.70;1.60;;;27.10;55.30;;;28.07;38.26;101398.91;4992029;28;21182;-64
2022/07/12 12:21:12;;;;;;;1.33;1.33;;;27.10;55.60;;;28.07;37.85;101401.59;4992942;28;21170;-63
2022/07/12 12:23:41;;;;;;;1.50;1.50;;;27.10;55.40;;;28.05;38.35;101385.72;4992905;28;20630;-63
2022/07/12 12:26:21;;;;;;;1.17;1.17;;;27.10;55.50;;;28.13;37.55;101395.44;4991443;28;20741;-63
2022/07/12 12:28:53;;;;;;;1.30;1.30;;;27.20;55.00;;;28.19;37.05;101389.22;4990995;28;21021;-62
2022/07/12 12:31:23;;;;;;;1.33;1.23;;;27.20;54.60;;;28.13;37.46;101390.06;4991907;28;20653;-64